Latest Coastal Weather Observations for Geelong Racecourse

IDV60701

Issued at 9:41 pm EST Sunday 20 May 2018 (issued every 10 minutes, with the page automatically refreshed every 10 minutes)

About coastal observations | Map of coastal stations | Coastal observations for VIC | Marine services | Other Formats
Station Details ID: 087184 Name: GEELONG RACECOURSE Lat: -38.17 Lon: 144.38 Height: 12.9 m
Data from the previous 72 hours. | See also: Recent months at Geelong Racecourse
Date/Time
EST
Temp
°C
Wind Pressure Rain since
9am
mm
Weather Cloud Vis
km
Sea
Height
m
Swell
Dir  Spd
kts
Gust
kts
hPa Trend Height
m
Period
s
Dir
20/09:30pm 13.6 WNW 13 20 1021.0 - 2.0 - - - - - - -
20/09:00pm 13.6 WNW 10 15 1021.0 - 1.8 Rain - - - - - -
20/08:30pm 13.6 NW 7 10 1021.0 - 0.6 - - - - - - -
20/08:00pm 13.7 WNW 8 11 1021.0 - 0.2 - - - - - - -
20/07:30pm 14.1 WNW 9 13 1021.1 - 0.2 - - - - - - -
20/07:00pm 14.2 W 10 16 1021.2 - 0.2 - - - - - - -
20/06:30pm 14.7 W 9 13 1021.1 - 0.0 - - - - - - -
20/06:00pm 14.6 W 9 13 1020.7 - 0.0 - - - - - - -
20/05:30pm 14.9 WNW 10 15 1020.6 - 0.0 - - - - - - -
20/05:00pm 15.0 W 11 16 1020.6 - 0.0 - - - - - - -
20/04:30pm 15.3 W 11 19 1020.7 - 0.0 - - - - - - -
20/04:00pm 14.9 W 11 19 1020.7 - 0.0 - - - - - - -
20/03:30pm 15.6 W 11 20 1020.7 - 0.0 - - - - - - -
20/03:00pm 15.8 WNW 12 18 1020.7 - 0.0 - - - - - - -
20/02:30pm 16.3 W 12 18 1020.8 - 0.0 - - - - - - -
20/02:00pm 15.9 W 12 20 1021.2 - 0.0 - - - - - - -
20/01:30pm 15.8 W 13 21 1021.2 - 0.0 - - - - - - -
20/01:00pm 16.5 WSW 12 21 1021.4 - 0.0 - - - - - - -
20/12:30pm 16.2 WSW 10 15 1021.6 - 0.0 - - - - - - -
20/12:00pm 15.8 W 12 18 1021.9 - 0.0 - - - - - - -
20/11:30am 16.4 W 12 18 1021.9 - 0.0 - - - - - - -
20/11:00am 15.6 W 12 18 1022.1 - 0.0 - - - - - - -
20/10:30am 15.3 W 11 19 1022.0 - 0.0 - - - - - - -
20/10:00am 15.0 W 13 18 1021.9 - 0.0 - - - - - - -
20/09:30am 14.2 W 13 20 1022.1 - 0.0 - - - - - - -
20/09:00am 13.4 WNW 9 16 1022.0 - 0.0 - - - - - - -
20/08:30am 13.1 WNW 9 17 1021.8 - 0.0 - - - - - - -
20/08:00am 12.6 WNW 9 15 1021.7 - 0.0 - - - - - - -
20/07:30am 12.5 WNW 9 14 1021.5 - 0.0 - - - - - - -
20/07:00am 12.3 WNW 9 14 1021.2 - 0.0 - - - - - - -
20/06:30am 12.2 W 8 13 1021.0 - 0.0 - - - - - - -
20/06:00am 12.2 W 8 13 1021.0 - 0.0 - - - - - - -
20/05:30am 12.1 WNW 8 12 1020.5 - 0.0 - - - - - - -
20/05:00am 12.1 WNW 10 14 1020.4 - 0.0 - - - - - - -
20/04:30am 12.1 WNW 9 14 1020.2 - 0.0 - - - - - - -
20/04:00am 12.0 WNW 10 15 1020.4 - 0.0 - - - - - - -
20/03:30am 12.0 W 11 16 1020.4 - 0.0 - - - - - - -
20/03:00am 12.1 WNW 10 17 1020.5 - 0.0 - - - - - - -
20/02:30am 12.0 WNW 10 17 1020.7 - 0.0 - - - - - - -
20/02:00am 11.6 WNW 8 13 1020.7 - 0.0 - - - - - - -
20/01:30am 11.8 WNW 8 15 1021.1 - 0.0 - - - - - - -
20/01:00am 12.0 W 8 15 1021.5 - 0.0 - - - - - - -
20/12:30am 11.7 WNW 7 12 1021.8 - 0.0 - - - - - - -
20/12:00am 11.5 W 7 11 1022.0 - 0.0 - - - - - - -
 
Date/Time
EST
Temp
°C
Wind Pressure Rain since
9am
mm
Weather Cloud Vis
km
Sea
Height
m
Swell
Dir  Spd
kts
Gust
kts
hPa Trend Height
m
Period
s
Dir
19/11:30pm 11.4 WNW 8 14 1022.0 - 0.0 - - - - - - -
19/11:00pm 11.5 WNW 8 13 1022.0 - 0.0 - - - - - - -
19/10:30pm 11.2 WNW 7 13 1022.1 - 0.0 - - - - - - -
19/10:00pm 11.4 NW 6 8 1022.4 - 0.0 - - - - - - -
19/09:30pm 10.7 NW 6 8 1022.4 - 0.0 - - - - - - -
19/09:00pm 10.5 NW 6 8 1022.6 - 0.0 - - - - - - -
19/08:30pm 11.0 NW 6 10 1022.7 - 0.0 - - - - - - -
19/08:00pm 10.9 WNW 5 7 1022.9 - 0.0 - - - - - - -
19/07:30pm 11.2 NW 5 6 1023.0 - 0.0 - - - - - - -
19/07:00pm 11.4 NW 6 10 1023.0 - 0.0 - - - - - - -
19/06:30pm 11.8 NW 5 7 1023.1 - 0.0 - - - - - - -
19/06:00pm 12.1 NW 7 12 1023.1 - 0.0 - - - - - - -
19/05:30pm 12.6 WNW 7 11 1023.1 - 0.0 - - - - - - -
19/05:00pm 13.3 WNW 7 12 1023.0 - 0.0 - - - - - - -
19/04:30pm 13.7 WNW 8 12 1023.0 - 0.0 - - - - - - -
19/04:00pm 14.5 WNW 11 16 1023.0 - 0.0 - - - - - - -
19/03:30pm 14.1 WNW 10 16 1023.1 - 0.0 - - - - - - -
19/03:00pm 14.5 WNW 10 15 1023.2 - 0.0 - - - - - - -
19/02:30pm 14.3 W 10 14 1023.5 - 0.0 - - - - - - -
19/02:00pm 14.2 W 10 15 1023.6 - 0.0 - - - - - - -
19/01:30pm 14.1 W 10 14 1023.8 - 0.0 - - - - - - -
19/01:00pm 14.3 W 8 11 1024.1 - 0.0 - - - - - - -
19/12:30pm 14.3 WSW 10 13 1024.5 - 0.0 - - - - - - -
19/12:00pm 14.4 W 7 10 1024.9 - 0.0 - - - - - - -
19/11:30am 14.7 W 10 15 1025.0 - 0.0 - - - - - - -
19/11:00am 14.3 WNW 7 11 1025.2 - 0.0 - - - - - - -
19/10:30am 14.2 WNW 7 11 1025.3 - 0.0 - - - - - - -
19/10:00am 13.2 NW 7 9 1025.3 - 0.0 - - - - - - -
19/09:30am 11.8 WNW 7 11 1025.4 - 0.0 - - - - - - -
19/09:00am 10.2 WNW 7 11 1025.3 - 0.0 - - - - - - -
19/08:30am 8.9 WNW 5 7 1025.1 - 0.0 - - - - - - -
19/08:00am 9.1 WNW 5 7 1024.9 - 0.0 - - - - - - -
19/07:30am 9.4 NW 5 7 1024.8 - 0.0 - - - - - - -
19/07:00am 9.7 WNW 4 5 1024.5 - 0.0 - - - - - - -
19/06:30am 9.7 WNW 4 5 1024.3 - 0.0 - - - - - - -
19/06:00am 9.7 WNW 3 4 1024.4 - 0.0 - - - - - - -
19/05:30am 9.8 NW 4 5 1024.2 - 0.0 - - - - - - -
19/05:00am 9.9 WNW 4 6 1024.0 - 0.0 - - - - - - -
19/04:30am 10.0 WNW 4 5 1024.0 - 0.0 - - - - - - -
19/04:00am 10.2 NW 3 4 1024.1 - 0.0 - - - - - - -
19/03:30am 10.2 WNW 3 4 1024.3 - 0.0 - - - - - - -
19/03:00am 10.1 NW 2 3 1024.3 - 0.0 - - - - - - -
19/02:30am 10.1 WNW 2 3 1024.4 - 0.0 - - - - - - -
19/02:00am 10.4 W 5 6 1024.4 - 0.0 - - - - - - -
19/01:30am 10.4 WNW 2 5 1024.3 - 0.0 - - - - - - -
19/01:00am 10.3 WNW 2 2 1024.4 - 0.0 - - - - - - -
19/12:30am 10.5 WSW 3 4 1024.6 - 0.0 - - - - - - -
19/12:00am 10.8 WNW 4 7 1024.6 - 0.0 - - - - - - -
 
Date/Time
EST
Temp
°C
Wind Pressure Rain since
9am
mm
Weather Cloud Vis
km
Sea
Height
m
Swell
Dir  Spd
kts
Gust
kts
hPa Trend Height
m
Period
s
Dir
18/11:30pm 10.9 W 2 4 1024.4 - 0.0 - - - - - - -
18/11:00pm 11.3 W 5 7 1024.6 - 0.0 - - - - - - -
18/10:30pm 11.2 NW 3 4 1024.6 - 0.0 - - - - - - -
18/10:00pm 11.1 W 2 2 1024.5 - 0.0 - - - - - - -
18/09:30pm 10.6 WSW 2 2 1024.4 - 0.0 - - - - - - -
18/09:00pm 11.0 WNW 5 7 1024.2 - 0.0 - - - - - - -
18/08:30pm 10.8 W 4 6 1024.3 - 0.0 - - - - - - -
18/08:00pm 10.7 WNW 2 4 1024.2 - 0.0 - - - - - - -
18/07:30pm 11.1 NW 3 4 1024.2 - 0.0 - - - - - - -
18/07:00pm 11.7 NW 2 3 1024.0 - 0.0 - - - - - - -
18/06:30pm 11.9 SW 3 5 1023.7 - 0.0 - - - - - - -
18/06:00pm 12.3 SW 3 4 1023.4 - 0.0 - - - - - - -
18/05:30pm 12.7 SSW 3 4 1023.1 - 0.0 - - - - - - -
18/05:00pm 13.7 S 4 4 1022.9 - 0.0 - - - - - - -
18/04:30pm 14.7 SSW 7 10 1022.7 - 0.0 - - - - - - -
18/04:00pm 15.0 SSW 9 13 1022.7 - 0.0 - - - - - - -
18/03:30pm 14.7 SSW 7 11 1022.6 - 0.0 - - - - - - -
18/03:00pm 16.5 WSW 11 16 1022.5 - 0.0 - - - - - - -
18/02:30pm 15.1 W 6 10 1022.5 - 0.0 - - - - - - -
18/02:00pm 16.0 W 10 14 1022.5 - 0.0 - - - - - - -
18/01:30pm 15.8 W 9 14 1022.5 - 0.0 - - - - - - -
18/01:00pm 16.2 W 9 13 1022.8 - 0.0 - - - - - - -
18/12:30pm 16.7 W 8 12 1022.8 - 0.0 - - - - - - -
18/12:00pm 16.9 W 11 17 1023.2 - 0.0 - - - - - - -
18/11:30am 16.0 WSW 10 14 1023.4 - 0.0 - - - - - - -
18/11:00am 15.3 WSW 10 15 1023.5 - 0.0 - - - - - - -
18/10:30am 15.7 WSW 9 14 1023.5 - 0.0 - - - - - - -
18/10:00am 14.7 WSW 10 15 1023.3 - 0.0 - - - - - - -
18/09:30am 14.3 W 10 14 1023.1 - 0.0 - - - - - - -
18/09:00am 13.4 W 7 10 1023.0 - 0.0 - - - - - - -
18/08:30am 13.4 WNW 8 11 1022.8 - 0.0 - - - - - - -
18/08:00am 12.7 WNW 5 8 1022.4 - 0.0 - - - - - - -
18/07:30am 12.4 WNW 6 9 1022.2 - 0.0 - - - - - - -
18/07:00am 12.3 WNW 5 7 1022.0 - 0.0 - - - - - - -
18/06:30am 12.6 WNW 5 8 1021.7 - 0.0 - - - - - - -
18/06:00am 12.9 WNW 6 10 1021.7 - 0.0 - - - - - - -
18/05:30am 13.0 WNW 6 9 1021.5 - 0.0 - - - - - - -
18/05:00am 12.9 WNW 9 13 1021.4 - 0.0 - - - - - - -
18/04:30am 12.9 WNW 6 10 1021.6 - 0.0 - - - - - - -
18/04:00am 12.7 WNW 7 12 1021.6 - 0.0 - - - - - - -
18/03:30am 12.7 WNW 7 13 1021.7 - 0.0 - - - - - - -
18/03:00am 12.6 WNW 9 14 1021.8 - 0.0 - - - - - - -
18/02:30am 12.8 WNW 8 13 1022.0 - 0.0 - - - - - - -
18/02:00am 12.9 WNW 7 11 1022.1 - 0.0 - - - - - - -
18/01:30am 13.1 WNW 7 12 1022.4 - 0.0 - - - - - - -
18/01:00am 13.0 WNW 5 9 1022.7 - 0.0 - - - - - - -
18/12:30am 13.0 WNW 7 13 1022.8 - 0.0 - - - - - - -
18/12:00am 13.0 WNW 7 12 1022.9 - 0.0 - - - - - - -
 
Date/Time
EST
Temp
°C
Wind Pressure Rain since
9am
mm
Weather Cloud Vis
km
Sea
Height
m
Swell
Dir  Spd
kts
Gust
kts
hPa Trend Height
m
Period
s
Dir
17/11:30pm 13.0 WNW 7 11 1022.9 - 0.0 - - - - - - -
17/11:00pm 13.0 WNW 9 15 1023.1 - 0.0 - - - - - - -
17/10:30pm 12.9 WNW 7 13 1023.3 - 0.0 - - - - - - -
17/10:00pm 12.9 WNW 8 13 1023.5 - 0.0 - - - - - - -

Other Formats:

Comma delimited format used in spreadsheet applications
http://www.bom.gov.au/fwo/IDV60701/IDV60701.94857.axf

JavaScript Object Notation format (JSON) in row-major order
http://www.bom.gov.au/fwo/IDV60701/IDV60701.94857.json